Time;durP1;ratioP1;P1;durP2;ratioP2;P2;SDS_P1;SDS_P2;PMS_P1;PMS_P2;Temp;Humidity;BMP_temperature;BMP_pressure;BME280_temperature;BME280_humidity;BME280_pressure;Samples;Min_cycle;Max_cycle;Signal;HPM_P1;HPM_P2
2023/01/28 00:01:35;;;;;;;4.40;3.50;;;;;;;;;;5013029;28;20092;-86
2023/01/28 00:04:00;;;;;;;3.92;3.47;;;;;;;;;;4994422;28;20081;-87
2023/01/28 00:06:25;;;;;;;4.50;3.70;;;;;;;;;;4993148;28;20036;-87
2023/01/28 00:08:51;;;;;;;4.05;3.10;;;;;;;;;;5013054;28;20034;-86
2023/01/28 00:11:16;;;;;;;3.90;2.90;;;;;;;;;;5013864;28;20533;-86
2023/01/28 00:13:41;;;;;;;2.90;2.57;;;;;;;;;;4994194;28;20042;-86
2023/01/28 00:16:10;;;;;;;3.83;2.97;;;;;;;;;;4995905;28;20045;-88
2023/01/28 00:18:35;;;;;;;3.22;2.70;;;;;;;;;;4995858;28;20700;-87
2023/01/28 00:21:05;;;;;;;3.70;2.92;;;;;;;;;;5013095;28;20065;-87
2023/01/28 00:23:31;;;;;;;3.75;2.70;;;;;;;;;;5012439;28;20069;-87
2023/01/28 00:26:00;;;;;;;4.25;2.70;;;;;;;;;;4998202;28;20034;-86
2023/01/28 00:28:25;;;;;;;7.07;4.45;;;;;;;;;;4993909;28;20041;-87
2023/01/28 00:30:51;;;;;;;8.57;5.03;;;;;;;;;;4994346;28;20026;-87
2023/01/28 00:33:16;;;;;;;8.30;4.97;;;;;;;;;;4992709;28;20038;-87
2023/01/28 00:35:41;;;;;;;4.50;3.42;;;;;;;;;;4993284;28;20476;-86
2023/01/28 00:38:07;;;;;;;4.57;3.35;;;;;;;;;;5010116;28;20040;-87
2023/01/28 00:40:33;;;;;;;5.45;3.38;;;;;;;;;;4993614;28;20130;-87
2023/01/28 00:42:58;;;;;;;4.25;3.42;;;;;;;;;;4993016;28;20476;-86
2023/01/28 00:45:23;;;;;;;5.37;3.50;;;;;;;;;;5010790;28;20038;-87
2023/01/28 00:47:48;;;;;;;4.85;3.85;;;;;;;;;;5012375;28;20057;-87
2023/01/28 00:50:14;;;;;;;4.37;3.20;;;;;;;;;;4994792;28;20034;-86
2023/01/28 00:52:39;;;;;;;4.03;3.08;;;;;;;;;;4995089;28;20029;-86
2023/01/28 00:55:05;;;;;;;3.80;3.00;;;;;;;;;;4995222;28;20034;-87
2023/01/28 00:57:30;;;;;;;3.10;2.55;;;;;;;;;;4995758;28;20034;-88
2023/01/28 00:59:55;;;;;;;4.43;3.37;;;;;;;;;;4994419;28;20042;-88
2023/01/28 01:02:20;;;;;;;4.17;3.20;;;;;;;;;;5005039;28;20046;-87
2023/01/28 01:04:57;;;;;;;4.07;3.15;;;;;;;;;;4991715;28;20107;-87
2023/01/28 01:07:30;;;;;;;4.22;3.30;;;;;;;;;;5000863;28;20045;-87
2023/01/28 01:09:57;;;;;;;4.18;3.20;;;;;;;;;;5010544;28;20042;-87
2023/01/28 01:12:22;;;;;;;4.88;2.95;;;;;;;;;;5009433;28;20044;-87
2023/01/28 01:14:47;;;;;;;4.33;3.17;;;;;;;;;;5010414;28;20495;-87
2023/01/28 01:17:12;;;;;;;3.30;2.70;;;;;;;;;;4991707;28;20041;-87
2023/01/28 01:19:37;;;;;;;3.27;2.50;;;;;;;;;;4996139;28;20087;-86
2023/01/28 01:22:02;;;;;;;2.93;2.23;;;;;;;;;;5015356;28;20030;-86
2023/01/28 01:24:28;;;;;;;2.87;2.10;;;;;;;;;;4999204;28;20030;-87
2023/01/28 01:26:53;;;;;;;4.22;3.38;;;;;;;;;;4999170;28;20072;-87
2023/01/28 01:29:18;;;;;;;3.73;2.93;;;;;;;;;;4995912;28;20038;-87
2023/01/28 01:31:44;;;;;;;2.70;2.20;;;;;;;;;;4996684;28;20042;-88
2023/01/28 01:34:09;;;;;;;2.50;2.10;;;;;;;;;;5012448;28;20076;-87
2023/01/28 01:36:34;;;;;;;3.13;2.50;;;;;;;;;;4999027;28;20038;-87
2023/01/28 01:38:59;;;;;;;3.57;2.60;;;;;;;;;;4995995;28;20034;-86
2023/01/28 01:41:26;;;;;;;3.67;2.40;;;;;;;;;;4995521;28;20507;-87
2023/01/28 01:43:56;;;;;;;3.53;2.65;;;;;;;;;;4990263;28;20030;-86
2023/01/28 01:46:29;;;;;;;3.90;2.92;;;;;;;;;;4987195;28;20043;-87
2023/01/28 01:48:56;;;;;;;3.20;2.88;;;;;;;;;;5007976;28;20408;-86
2023/01/28 01:51:24;;;;;;;5.82;3.97;;;;;;;;;;4996083;28;20030;-86
2023/01/28 01:53:51;;;;;;;3.47;2.80;;;;;;;;;;5013791;28;20495;-86
2023/01/28 01:56:18;;;;;;;3.63;2.90;;;;;;;;;;4995992;28;20080;-86
2023/01/28 01:58:45;;;;;;;2.83;2.25;;;;;;;;;;4992718;28;20041;-87
2023/01/28 02:01:10;;;;;;;3.45;2.72;;;;;;;;;;5006861;28;20049;-87
2023/01/28 02:03:39;;;;;;;3.57;2.70;;;;;;;;;;4989739;28;20064;-87
2023/01/28 02:06:05;;;;;;;3.90;3.03;;;;;;;;;;4988698;28;20289;-86
2023/01/28 02:08:30;;;;;;;4.38;3.10;;;;;;;;;;4992854;28;20048;-86
2023/01/28 02:11:04;;;;;;;5.60;3.80;;;;;;;;;;4994822;28;20088;-86
2023/01/28 02:13:31;;;;;;;4.22;3.35;;;;;;;;;;4999115;28;20284;-87
2023/01/28 02:15:58;;;;;;;4.32;3.30;;;;;;;;;;5001558;28;20102;-86
2023/01/28 02:18:23;;;;;;;3.80;2.90;;;;;;;;;;4994212;28;20045;-87
2023/01/28 02:21:07;;;;;;;3.50;2.60;;;;;;;;;;4994732;28;20050;-86
2023/01/28 02:23:38;;;;;;;2.97;2.30;;;;;;;;;;4994567;28;20069;-86
2023/01/28 02:26:22;;;;;;;3.03;2.20;;;;;;;;;;4995037;28;20038;-87
2023/01/28 02:28:50;;;;;;;3.15;2.45;;;;;;;;;;5015684;28;20399;-86
2023/01/28 02:31:23;;;;;;;4.10;2.80;;;;;;;;;;4996542;28;20113;-86
2023/01/28 02:33:54;;;;;;;3.70;2.58;;;;;;;;;;5010259;28;20041;-87
2023/01/28 02:36:27;;;;;;;3.50;2.53;;;;;;;;;;5007748;28;20072;-88
2023/01/28 02:38:53;;;;;;;3.63;2.40;;;;;;;;;;5004833;28;20042;-89
2023/01/28 02:41:22;;;;;;;3.72;2.92;;;;;;;;;;5010342;28;20038;-89
2023/01/28 02:43:48;;;;;;;4.15;2.80;;;;;;;;;;4990781;28;20030;-85
2023/01/28 02:49:07;;;;;;;3.65;2.67;;;;;;;;;;5004789;28;20174;-87
2023/01/28 02:51:58;;;;;;;3.75;2.50;;;;;;;;;;4994450;28;20030;-87
2023/01/28 02:54:32;;;;;;;3.08;2.22;;;;;;;;;;4971853;28;20042;-87
2023/01/28 02:56:58;;;;;;;2.90;2.15;;;;;;;;;;5003826;28;20045;-87
2023/01/28 02:59:30;;;;;;;2.55;2.15;;;;;;;;;;5009516;28;20046;-86
2023/01/28 03:02:02;;;;;;;4.85;2.80;;;;;;;;;;5011820;28;20172;-88
2023/01/28 03:04:30;;;;;;;3.00;2.42;;;;;;;;;;5012261;28;20030;-86
2023/01/28 03:06:57;;;;;;;3.25;2.40;;;;;;;;;;5007863;28;20030;-87
2023/01/28 03:09:25;;;;;;;4.70;3.13;;;;;;;;;;4998657;28;20189;-86
2023/01/28 03:37:49;;;;;;;2.92;2.13;;;;;;;;;;5014428;28;20060;-86
2023/01/28 03:40:14;;;;;;;3.47;2.42;;;;;;;;;;5015610;28;20033;-86
2023/01/28 03:42:39;;;;;;;3.17;2.40;;;;;;;;;;4977134;28;20078;-87
2023/01/28 03:45:06;;;;;;;3.10;2.20;;;;;;;;;;4989827;28;20161;-86
2023/01/28 03:47:32;;;;;;;3.00;2.25;;;;;;;;;;5014423;28;20034;-86
2023/01/28 03:49:59;;;;;;;3.03;2.20;;;;;;;;;;5001424;28;20038;-87
2023/01/28 03:52:25;;;;;;;3.45;2.30;;;;;;;;;;5009068;28;20041;-87
2023/01/28 03:54:51;;;;;;;3.00;2.40;;;;;;;;;;4988710;28;20491;-87
2023/01/28 03:57:17;;;;;;;3.42;2.20;;;;;;;;;;4991344;28;20550;-87
2023/01/28 03:59:43;;;;;;;3.40;2.42;;;;;;;;;;4995924;28;20113;-87
2023/01/28 04:02:09;;;;;;;2.92;2.33;;;;;;;;;;4983405;28;20574;-86
2023/01/28 04:04:35;;;;;;;3.10;2.20;;;;;;;;;;4993055;28;20045;-88
2023/01/28 04:07:00;;;;;;;3.78;2.60;;;;;;;;;;4993404;28;20033;-88
2023/01/28 04:09:26;;;;;;;3.40;2.50;;;;;;;;;;4996332;28;20042;-86
2023/01/28 04:11:51;;;;;;;3.83;2.53;;;;;;;;;;4986860;28;20281;-87
2023/01/28 04:14:16;;;;;;;3.73;2.20;;;;;;;;;;4996708;28;20034;-87
2023/01/28 04:16:42;;;;;;;3.00;2.20;;;;;;;;;;4997594;28;20046;-87
2023/01/28 04:19:08;;;;;;;3.95;2.40;;;;;;;;;;4983512;28;20030;-85
2023/01/28 04:21:33;;;;;;;2.75;2.15;;;;;;;;;;4991783;28;20140;-85
2023/01/28 04:23:58;;;;;;;4.10;2.58;;;;;;;;;;4994764;28;20034;-85
2023/01/28 04:26:24;;;;;;;2.90;2.30;;;;;;;;;;4983865;28;20038;-87
2023/01/28 04:28:49;;;;;;;3.03;2.40;;;;;;;;;;5001822;28;20312;-85
2023/01/28 04:31:14;;;;;;;2.83;2.50;;;;;;;;;;4993372;28;20309;-86
2023/01/28 04:33:39;;;;;;;2.78;2.10;;;;;;;;;;5012050;28;20293;-85
2023/01/28 04:36:04;;;;;;;3.57;2.60;;;;;;;;;;4992089;28;20602;-85
2023/01/28 04:38:30;;;;;;;3.15;2.50;;;;;;;;;;4997111;28;20034;-86
2023/01/28 04:40:55;;;;;;;3.97;2.47;;;;;;;;;;5001135;28;20553;-85
2023/01/28 04:43:20;;;;;;;3.10;2.43;;;;;;;;;;5010309;28;20038;-85
2023/01/28 04:45:46;;;;;;;3.42;2.55;;;;;;;;;;5010267;28;20045;-84
2023/01/28 04:48:11;;;;;;;3.15;2.50;;;;;;;;;;4988594;28;20034;-85
2023/01/28 04:50:36;;;;;;;3.63;2.78;;;;;;;;;;5006082;28;20141;-85
2023/01/28 04:53:02;;;;;;;3.40;2.72;;;;;;;;;;4988655;28;20560;-85
2023/01/28 04:55:27;;;;;;;3.70;2.70;;;;;;;;;;5006382;28;20038;-85
2023/01/28 04:57:52;;;;;;;6.37;3.10;;;;;;;;;;4995588;28;20293;-85
2023/01/28 05:00:17;;;;;;;3.30;2.80;;;;;;;;;;4992627;28;20117;-85
2023/01/28 05:02:43;;;;;;;3.63;2.50;;;;;;;;;;4997113;28;20592;-85
2023/01/28 05:05:08;;;;;;;3.83;2.70;;;;;;;;;;4998994;28;20025;-86
2023/01/28 05:07:34;;;;;;;3.17;2.35;;;;;;;;;;4999182;28;20746;-85
2023/01/28 05:09:59;;;;;;;3.85;2.60;;;;;;;;;;4997158;28;20243;-84
2023/01/28 05:12:24;;;;;;;3.53;2.40;;;;;;;;;;4999448;28;21021;-85
2023/01/28 05:14:49;;;;;;;3.42;2.55;;;;;;;;;;4999484;28;20030;-85
2023/01/28 05:17:14;;;;;;;3.57;2.90;;;;;;;;;;5003481;28;20069;-87
2023/01/28 05:19:40;;;;;;;3.03;2.50;;;;;;;;;;4999598;28;20057;-87
2023/01/28 05:22:05;;;;;;;3.07;2.10;;;;;;;;;;4998364;28;20295;-87
2023/01/28 05:24:30;;;;;;;2.83;2.23;;;;;;;;;;5016351;28;20308;-85
2023/01/28 05:26:55;;;;;;;3.37;2.60;;;;;;;;;;5015331;28;20315;-85
2023/01/28 05:29:20;;;;;;;3.33;2.50;;;;;;;;;;5013777;28;20299;-85
2023/01/28 05:31:46;;;;;;;3.03;2.27;;;;;;;;;;4989973;28;20030;-85
2023/01/28 05:34:12;;;;;;;4.25;2.63;;;;;;;;;;4997482;28;20440;-86
2023/01/28 05:36:37;;;;;;;2.47;2.10;;;;;;;;;;5015271;28;20093;-85
2023/01/28 05:39:02;;;;;;;3.92;2.40;;;;;;;;;;5016055;28;20339;-85
2023/01/28 05:41:27;;;;;;;2.83;2.40;;;;;;;;;;4994715;28;20126;-85
2023/01/28 05:43:52;;;;;;;3.47;2.43;;;;;;;;;;5010357;28;20069;-86
2023/01/28 05:46:18;;;;;;;3.80;2.50;;;;;;;;;;4991315;28;20038;-86
2023/01/28 05:48:44;;;;;;;3.87;2.70;;;;;;;;;;4994718;28;20084;-86
2023/01/28 05:51:09;;;;;;;3.40;2.42;;;;;;;;;;4984753;28;20022;-85
2023/01/28 05:53:34;;;;;;;3.40;2.30;;;;;;;;;;4991288;28;20057;-86
2023/01/28 05:55:59;;;;;;;2.97;2.53;;;;;;;;;;4989220;28;20503;-85
2023/01/28 05:58:27;;;;;;;3.90;2.90;;;;;;;;;;4990975;28;20098;-84
2023/01/28 06:00:54;;;;;;;2.65;2.20;;;;;;;;;;5009163;28;20034;-85
2023/01/28 06:03:19;;;;;;;5.47;3.17;;;;;;;-144.63;100.00;87209.31;4995030;28;20037;-85
2023/01/28 06:05:44;;;;;;;3.50;2.70;;;;;;;;;;4991829;28;20184;-86
2023/01/28 06:08:09;;;;;;;3.20;2.70;;;;;;;;;;4999537;28;20042;-85
2023/01/28 06:10:35;;;;;;;3.17;2.40;;;;;;;;;;4988720;28;20432;-86
2023/01/28 06:13:01;;;;;;;3.75;2.58;;;;;;;;;;4991676;28;20033;-86
2023/01/28 06:15:26;;;;;;;3.47;2.58;;;;;;;;;;5009606;28;20092;-85
2023/01/28 06:17:51;;;;;;;3.30;2.60;;;;;;;;;;5005531;28;20438;-86
2023/01/28 06:20:16;;;;;;;2.77;2.40;;;;;;;;;;4986706;28;20286;-86
2023/01/28 06:22:41;;;;;;;3.92;2.88;;;;;;;;;;4999882;28;20111;-84
2023/01/28 06:25:07;;;;;;;3.55;2.78;;;;;;;;;;4991058;28;20456;-85
2023/01/28 06:27:32;;;;;;;3.33;2.50;;;;;;;;;;4990991;28;20133;-87
2023/01/28 06:29:57;;;;;;;3.10;2.53;;;;;;;;;;4995202;28;20037;-85
2023/01/28 06:32:22;;;;;;;3.30;2.50;;;;;;;;;;4990694;28;20277;-86
2023/01/28 06:34:47;;;;;;;3.17;2.40;;;;;;;;;;4996515;28;20352;-85
2023/01/28 06:37:13;;;;;;;3.40;2.80;;;;;;;;;;4995581;28;20053;-86
2023/01/28 06:39:38;;;;;;;4.80;2.80;;;;;;;;;;4995046;28;20289;-85
2023/01/28 06:42:03;;;;;;;4.53;2.80;;;;;;;;;;4994826;28;20041;-86
2023/01/28 06:44:28;;;;;;;3.60;2.60;;;;;;;;;;5009191;28;20269;-86
2023/01/28 06:46:54;;;;;;;4.27;2.73;;;;;;;;;;4991317;28;20148;-86
2023/01/28 06:49:20;;;;;;;3.63;2.60;;;;;;;;;;5008496;28;20038;-85
2023/01/28 06:51:45;;;;;;;5.90;3.60;;;;;;;;;;4988632;28;20424;-85
2023/01/28 06:54:10;;;;;;;6.30;4.23;;;;;;;;;;4990221;28;20053;-85
2023/01/28 06:56:35;;;;;;;5.00;3.90;;;;;;;;;;4991551;28;20045;-86
2023/01/28 06:59:01;;;;;;;4.13;3.72;;;;;;;;;;4992759;28;20081;-85
2023/01/28 07:01:26;;;;;;;3.85;3.25;;;;;;;;;;5013852;28;20046;-86
2023/01/28 07:03:51;;;;;;;4.33;3.47;;;;;;;;;;4996024;28;20073;-85
2023/01/28 07:06:16;;;;;;;4.45;3.45;;;;;;;;;;5013720;28;20281;-85
2023/01/28 07:08:42;;;;;;;4.90;3.03;;;;;;;;;;5006487;28;20125;-88
2023/01/28 07:11:07;;;;;;;4.37;3.30;;;;;;;;;;5019705;28;20053;-85
2023/01/28 07:13:32;;;;;;;4.38;3.20;;;;;;;;;;5019151;28;20340;-86
2023/01/28 07:15:58;;;;;;;6.38;3.75;;;;;;;;;;5018941;28;20037;-86
2023/01/28 07:18:23;;;;;;;4.90;3.70;;;;;;;;;;4996145;28;20055;-86
2023/01/28 07:20:48;;;;;;;4.45;3.15;;;;;;;;;;5003002;28;20503;-86
2023/01/28 07:23:13;;;;;;;6.70;3.92;;;;;;;;;;4989082;28;20466;-85
2023/01/28 07:25:39;;;;;;;4.93;4.00;;;;;;;;;;5003671;28;20045;-85
2023/01/28 07:28:04;;;;;;;5.93;4.38;;;;;;;;;;4994684;28;20034;-85
2023/01/28 07:30:30;;;;;;;5.13;3.78;;;;;;;;;;5014689;28;20130;-85
2023/01/28 07:32:55;;;;;;;5.32;3.80;;;;;;;;;;4997585;28;20061;-85
2023/01/28 07:35:21;;;;;;;5.15;3.90;;;;;;;;;;4995539;28;20052;-86
2023/01/28 07:37:53;;;;;;;5.90;4.32;;;;;;;;;;5010225;28;20037;-85
2023/01/28 07:40:19;;;;;;;7.07;4.53;;;;;;;;;;4991371;28;20053;-85
2023/01/28 07:42:44;;;;;;;5.90;3.88;;;;;;;;;;5006350;28;20046;-86
2023/01/28 07:45:09;;;;;;;5.53;4.23;;;;;;;;;;4994118;28;20050;-86
2023/01/28 07:47:35;;;;;;;5.18;3.90;;;;;;;;;;5014454;28;20030;-86
2023/01/28 07:50:03;;;;;;;5.07;4.00;;;;;;;;;;5002698;28;20034;-86
2023/01/28 07:52:28;;;;;;;5.82;4.00;;;;;;;;;;4999995;28;20042;-86
2023/01/28 07:54:53;;;;;;;7.82;4.40;;;;;;;;;;4985971;28;20571;-86
2023/01/28 07:57:22;;;;;;;5.43;3.90;;;;;;;;;;4994106;28;20052;-86
2023/01/28 07:59:48;;;;;;;4.97;3.65;;;;;;;;;;4996463;28;20299;-86
2023/01/28 08:02:13;;;;;;;4.78;3.60;;;;;;;;;;5013411;28;20492;-86
2023/01/28 08:04:39;;;;;;;5.18;4.20;;;;;;;;;;5000661;28;20049;-86
2023/01/28 08:07:05;;;;;;;5.13;3.78;;;;;;;;;;5019189;28;20038;-86
2023/01/28 08:09:33;;;;;;;5.38;4.03;;;;;;;;;;5016099;28;20041;-86
2023/01/28 08:12:00;;;;;;;6.45;4.55;;;;;;;;;;4997767;28;20056;-85
2023/01/28 08:14:26;;;;;;;6.28;4.25;;;;;;;;;;5002521;28;20054;-86
2023/01/28 08:16:51;;;;;;;6.63;4.40;;;;;;;;;;5010475;28;20044;-87
2023/01/28 08:19:17;;;;;;;5.45;4.15;;;;;;;;;;4998294;28;20041;-86
2023/01/28 08:21:42;;;;;;;5.13;3.95;;;;;;;;;;5006070;28;20245;-86
2023/01/28 08:24:08;;;;;;;5.80;4.67;;;;;;;;;;5012395;28;20049;-86
2023/01/28 08:26:34;;;;;;;5.25;4.25;;;;;;;;;;4983663;28;20274;-86
2023/01/28 08:28:59;;;;;;;6.22;4.15;;;;;;;;;;4992351;28;20050;-85
2023/01/28 08:31:24;;;;;;;5.43;4.00;;;;;;;;;;4992808;28;20045;-86
2023/01/28 08:33:49;;;;;;;4.95;3.85;;;;;;;;;;4976398;28;20031;-87
2023/01/28 08:36:15;;;;;;;4.47;3.40;;;;;;;;;;4988124;28;20492;-85
2023/01/28 08:38:40;;;;;;;5.67;4.20;;;;;;;;;;5004849;28;20038;-85
2023/01/28 08:41:05;;;;;;;6.15;4.78;;;;;;;;;;5010051;28;20568;-86
2023/01/28 08:43:30;;;;;;;4.95;3.65;;;;;;;;;;4996551;28;20035;-86
2023/01/28 08:45:56;;;;;;;4.80;3.43;;;;;;;;;;5001142;28;20038;-86
2023/01/28 08:48:21;;;;;;;5.18;4.15;;;;;;;;;;5010943;28;20315;-86
2023/01/28 08:50:46;;;;;;;6.07;4.53;;;;;;;;;;4993956;28;20034;-85
2023/01/28 08:53:13;;;;;;;6.82;5.18;;;;;;;;;;5006786;28;20038;-86
2023/01/28 08:55:38;;;;;;;6.50;5.25;;;;;;;;;;4993207;28;20501;-86
2023/01/28 08:58:09;;;;;;;6.80;5.63;;;;;;;;;;5009922;28;20121;-87
2023/01/28 09:00:34;;;;;;;8.38;5.20;;;;;;;;;;4991296;28;20061;-87
2023/01/28 09:02:59;;;;;;;6.50;5.43;;;;;;;;;;4995269;28;20038;-86
2023/01/28 09:05:24;;;;;;;6.15;4.75;;;;;;;;;;4992606;28;20034;-86
2023/01/28 09:07:50;;;;;;;7.27;5.13;;;;;;;;;;5007538;28;20030;-86
2023/01/28 09:10:15;;;;;;;7.45;5.10;;;;;;;;;;5004060;28;20312;-86
2023/01/28 09:12:41;;;;;;;7.00;5.00;;;;;;;;;;4992965;28;20561;-86
2023/01/28 09:15:06;;;;;;;6.43;4.50;;;;;;;;;;4989913;28;20038;-86
2023/01/28 09:17:31;;;;;;;6.25;4.90;;;;;;;;;;4991964;28;20784;-86
2023/01/28 09:19:56;;;;;;;7.60;5.03;;;;;;;;;;5009922;28;20622;-85
2023/01/28 09:22:22;;;;;;;6.23;4.07;;;;;;;;;;4988354;28;20038;-86
2023/01/28 09:24:47;;;;;;;5.97;4.33;;;;;;;;;;5005530;28;20403;-86
2023/01/28 09:27:12;;;;;;;7.03;4.47;;;;;;;;;;4990544;28;20722;-87
2023/01/28 09:29:38;;;;;;;7.43;4.47;;;;;;;;;;4991740;28;20076;-86
2023/01/28 09:32:03;;;;;;;6.53;4.22;;;;;;;;;;4991571;28;20053;-85
2023/01/28 09:34:29;;;;;;;4.90;3.80;;;;;;;;;;4991498;28;20088;-85
2023/01/28 09:36:54;;;;;;;5.03;3.90;;;;;;;;;;4992158;28;20050;-85
2023/01/28 09:39:19;;;;;;;6.30;4.13;;;;;;;;;;5008665;28;20041;-86
2023/01/28 09:41:44;;;;;;;4.82;3.83;;;;;;;;;;5005631;28;20281;-86
2023/01/28 09:44:09;;;;;;;6.03;4.18;;;;;;;;;;4991838;28;20582;-86
2023/01/28 09:46:36;;;;;;;4.22;3.67;;;;;;;;;;4995613;28;20116;-86
2023/01/28 09:49:04;;;;;;;6.18;4.05;;;;;;;;;;5004355;28;20057;-85
2023/01/28 09:51:35;;;;;;;6.28;4.03;;;;;;;;;;4991611;28;20045;-86
2023/01/28 09:54:23;;;;;;;6.32;4.20;;;;;;;;;;5009546;28;20046;-86
2023/01/28 09:56:52;;;;;;;5.78;3.58;;;;;;;;;;4945619;28;20030;-85
2023/01/28 09:59:19;;;;;;;6.13;3.78;;;;;;;;;;4996211;28;20038;-86
2023/01/28 10:01:46;;;;;;;5.40;3.80;;;;;;;;;;4993900;28;20038;-85
2023/01/28 10:04:12;;;;;;;6.47;3.80;;;;;;;;;;4991906;28;20049;-85
2023/01/28 10:06:55;;;;;;;6.33;3.77;;;;;;;;;;5012586;28;20034;-86
2023/01/28 10:09:46;;;;;;;7.32;4.30;;;;;;;;;;4986172;28;20042;-86
2023/01/28 10:12:30;;;;;;;6.38;3.80;;;;;;;;;;5011771;28;20124;-85
2023/01/28 10:14:58;;;;;;;4.40;3.28;;;;;;;;;;4994642;28;20041;-85
2023/01/28 10:17:31;;;;;;;5.72;3.45;;;;;;;;;;4990577;28;20573;-86
2023/01/28 10:19:59;;;;;;;4.75;3.13;;;;;;;;;;4987966;28;20391;-86
2023/01/28 10:22:32;;;;;;;4.43;3.30;;;;;;;22.40;0.00;87209.31;5006870;28;20038;-85
2023/01/28 10:25:05;;;;;;;3.85;2.67;;;;;;;;;;4989182;28;20045;-86
2023/01/28 10:27:32;;;;;;;6.60;3.95;;;;;;;;;;4995952;28;20042;-85
2023/01/28 10:30:14;;;;;;;4.78;3.53;;;;;;;;;;4989516;28;20068;-85
2023/01/28 10:32:42;;;;;;;5.07;3.63;;;;;;;;;;5005248;28;20143;-86
2023/01/28 10:35:07;;;;;;;9.00;5.43;;;;;;;;;;5006178;28;20112;-85
2023/01/28 10:37:34;;;;;;;10.27;6.32;;;;;;;;;;4987844;28;20543;-86
2023/01/28 10:40:00;;;;;;;9.10;5.63;;;;;;;;;;5007206;28;20030;-85
2023/01/28 10:42:33;;;;;;;8.05;4.57;;;;;;;;;;5005997;28;20045;-85
2023/01/28 10:45:00;;;;;;;5.88;3.38;;;;;;;;;;4988528;28;20683;-85
2023/01/28 10:47:32;;;;;;;5.10;3.58;;;;;;;;;;5008868;28;20124;-85
2023/01/28 10:49:58;;;;;;;4.75;3.67;;;;;;;;;;5007917;28;20041;-86
2023/01/28 10:52:24;;;;;;;6.63;4.00;;;;;;;;;;5004658;28;20491;-85
2023/01/28 10:54:57;;;;;;;5.70;3.55;;;;;;;;;;5008127;28;20111;-85
2023/01/28 10:57:25;;;;;;;4.18;3.20;;;;;;;;;;5010908;28;20042;-86
2023/01/28 10:59:51;;;;;;;4.57;2.92;;;;;;;;;;5006545;28;20124;-84
2023/01/28 11:02:34;;;;;;;5.47;3.38;;;;;;;;;;4986531;28;20121;-87
2023/01/28 11:05:16;;;;;;;6.00;3.30;;;;;;;;;;4988122;28;20073;-84
2023/01/28 11:08:00;;;;;;;6.25;3.38;;;;;;;;;;4981463;28;20049;-84
2023/01/28 11:10:36;;;;;;;4.03;3.00;;;;;;;;;;4992654;28;20041;-87
2023/01/28 11:13:04;;;;;;;4.72;3.33;;;;;;;;;;4993342;28;20034;-86
2023/01/28 11:15:51;;;;;;;4.22;3.10;;;;;;;;;;4979394;28;20030;-86
2023/01/28 11:18:17;;;;;;;;;;;;;;;;;;4997186;28;20045;-83
2023/01/28 11:20:42;;;;;;;;;;;;;;;;;;4993791;28;20020;-83
2023/01/28 11:23:07;;;;;;;;;;;;;;;;;;4998416;28;19921;-84
2023/01/28 11:25:32;;;;;;;;;;;;;;;;;;4992780;28;20337;-83
2023/01/28 11:27:57;;;;;;;;;;;;;;;;;;5009736;28;20390;-84
2023/01/28 11:30:23;;;;;;;;;;;;;;;;;;5008206;28;19921;-84
2023/01/28 11:32:48;;;;;;;;;;;;;;;;;;4991552;28;20342;-84
2023/01/28 11:35:13;;;;;;;;;;;;;;;;;;4992908;28;19927;-85
2023/01/28 11:37:38;;;;;;;;;;;;;;;;;;5011092;28;20211;-84
2023/01/28 11:40:03;;;;;;;;;;;;;;;;;;5010703;28;20048;-84
2023/01/28 11:42:28;;;;;;;;;;;;;;;;;;5012169;28;19925;-84
2023/01/28 11:44:53;;;;;;;;;;;;;;;;;;5001329;28;19924;-84
2023/01/28 11:47:26;;;;;;;4.82;3.13;;;;;;;;;;5003877;28;19940;-84
2023/01/28 11:50:10;;;;;;;5.07;3.75;;;;;;;;;;5018728;28;20121;-84
2023/01/28 11:52:44;;;;;;;5.45;3.70;;;;;;;;;;5012205;28;20050;-85
2023/01/28 11:55:09;;;;;;;3.75;2.85;;;;;;;;;;4994657;28;20045;-85
2023/01/28 11:57:44;;;;;;;7.18;4.70;;;;;;;;;;4994634;28;20029;-85
2023/01/28 12:00:09;;;;;;;6.15;4.20;;;;;;;;;;5009920;28;20038;-85
2023/01/28 12:02:41;;;;;;;6.38;3.30;;;;;;;;;;4992870;28;20411;-86
2023/01/28 12:05:06;;;;;;;3.38;2.65;;;;;;;;;;5009953;28;20355;-86
2023/01/28 12:07:40;;;;;;;5.87;2.80;;;;;;;;;;4995776;28;20038;-86
2023/01/28 12:10:34;;;;;;;3.40;2.60;;;;;;;;;;5005663;28;20041;-86
2023/01/28 12:13:09;;;;;;;4.30;3.03;;;;;;;;;;4975803;28;20477;-86
2023/01/28 12:15:56;;;;;;;3.80;2.63;;;;;;;;;;4987737;28;20093;-86
2023/01/28 12:18:21;;;;;;;5.97;3.67;;;;;;;;;;5010165;28;20119;-86
2023/01/28 12:20:49;;;;;;;27.40;11.97;;;;;;;;;;4984691;28;20038;-86
2023/01/28 12:23:35;;;;;;;16.40;9.25;;;;;;;;;;5000331;28;20300;-85
2023/01/28 12:26:07;;;;;;;7.78;4.80;;;;;;;;;;5005589;28;20041;-86
2023/01/28 12:28:32;;;;;;;6.15;4.15;;;;;;;;;;4996109;28;20049;-86
2023/01/28 12:31:01;;;;;;;5.33;3.80;;;;;;;;;;4993404;28;20030;-86
2023/01/28 12:33:44;;;;;;;6.75;4.85;;;;;;;;;;5005399;28;20303;-86
2023/01/28 12:36:48;;;;;;;6.00;4.50;;;;;;;;;;4985504;28;20046;-86
2023/01/28 12:39:16;;;;;;;6.03;4.38;;;;;;;;;;4877493;29;20046;-87
2023/01/28 12:41:42;;;;;;;4.60;3.95;;;;;;;;;;4893468;29;20182;-86
2023/01/28 12:44:13;;;;;;;5.38;4.05;;;;;;;;;;4948137;28;20037;-86
2023/01/28 12:46:41;;;;;;;4.55;3.30;;;;;;;;;;5000342;28;20403;-86
2023/01/28 12:49:10;;;;;;;3.58;2.50;;;;;;;;;;5004783;28;20062;-85
2023/01/28 12:51:52;;;;;;;6.35;3.83;;;;;;;;;;4993791;28;20117;-86
2023/01/28 12:54:17;;;;;;;5.22;3.45;;;;;;;;;;4989118;28;20044;-86
2023/01/28 12:56:46;;;;;;;7.47;3.30;;;;;;;;;;4998365;28;20116;-86
2023/01/28 12:59:15;;;;;;;5.90;3.65;;;;;;;;;;4994005;28;20288;-87
2023/01/28 13:01:42;;;;;;;4.47;2.90;;;;;;;;;;4990879;28;20049;-86
2023/01/28 13:04:12;;;;;;;5.43;3.28;;;;;;;;;;5006782;28;20118;-86
2023/01/28 13:06:39;;;;;;;6.60;3.15;;;;;;;;;;4992905;28;20037;-86
2023/01/28 13:09:16;;;;;;;4.05;2.47;;;;;;;;;;4992787;28;20100;-87
2023/01/28 13:11:41;;;;;;;4.18;2.80;;;;;;;;;;5002397;28;20038;-86
2023/01/28 13:14:11;;;;;;;3.75;2.35;;;;;;;;;;4995311;28;20034;-87
2023/01/28 13:16:36;;;;;;;3.72;2.50;;;;;;;;;;5013011;28;20430;-86
2023/01/28 13:19:21;;;;;;;7.67;4.20;;;;;;;;;;4994939;28;20034;-86
2023/01/28 13:21:48;;;;;;;6.20;3.17;;;;;;;;;;4995898;28;20048;-86
2023/01/28 13:24:13;;;;;;;9.93;5.15;;;;;;;;;;5001787;28;20052;-86
2023/01/28 13:26:43;;;;;;;5.33;3.20;;;;;;;;;;5014176;28;20037;-86
2023/01/28 13:29:17;;;;;;;4.45;2.38;;;;;;;;;;5013798;28;20092;-87
2023/01/28 13:31:44;;;;;;;6.72;2.55;;;;;;;;;;4996072;28;20038;-86
2023/01/28 13:34:24;;;;;;;2.95;2.28;;;;;;;;;;5013327;28;20093;-87
2023/01/28 13:36:50;;;;;;;3.75;2.50;;;;;;;;;;5005394;28;20030;-86
2023/01/28 13:39:22;;;;;;;5.38;3.10;;;;;;;;;;4996315;28;20610;-86
2023/01/28 13:41:47;;;;;;;3.97;2.83;;;;;;;;;;5015132;28;20101;-86
2023/01/28 13:44:39;;;;;;;3.53;2.60;;;;;;;;;;5001299;28;20402;-86
2023/01/28 13:47:04;;;;;;;;;;;;;;;;;;4989742;28;20042;-85
2023/01/28 13:49:32;;;;;;;3.95;2.63;;;;;;;;;;4994636;28;20045;-85
2023/01/28 13:52:10;;;;;;;4.68;3.17;;;;;;;;;;4994812;28;20037;-85
2023/01/28 13:54:37;;;;;;;5.35;3.40;;;;;;;;;;5011758;28;20101;-86
2023/01/28 13:57:11;;;;;;;5.63;3.40;;;;;;;;;;4996065;28;20057;-86
2023/01/28 13:59:47;;;;;;;6.40;3.70;;;;;;;;;;4994544;28;20044;-86
2023/01/28 14:02:27;;;;;;;4.22;3.00;;;;;;;;;;4996131;28;20343;-86
2023/01/28 14:05:00;;;;;;;7.63;3.15;;;;;;;;;;4992086;28;20035;-85
2023/01/28 14:07:25;;;;;;;4.75;3.08;;;;;;;;;;4998176;28;20457;-85
2023/01/28 14:09:50;;;;;;;5.93;3.57;;;;;;;;;;5005458;28;20042;-85
2023/01/28 14:12:26;;;;;;;5.57;3.70;;;;;;;;;;5017031;28;20339;-85
2023/01/28 14:15:10;;;;;;;5.18;3.30;;;;;;;;;;4996069;28;20933;-85
2023/01/28 14:17:48;;;;;;;4.78;3.60;;;;;;;;;;5014136;28;20498;-85
2023/01/28 14:20:40;;;;;;;5.13;3.63;;;;;;;;;;4993819;28;20408;-85
2023/01/28 14:23:12;;;;;;;4.10;3.10;;;;;;;;;;5007793;28;20037;-85
2023/01/28 14:25:43;;;;;;;4.03;3.13;;;;;;;;;;4989539;28;20041;-85
2023/01/28 14:28:10;;;;;;;4.05;3.20;;;;;;;;;;5011961;28;20088;-85
2023/01/28 14:30:48;;;;;;;4.20;3.33;;;;;;;;;;5014361;28;20053;-85
2023/01/28 14:33:13;;;;;;;4.78;3.45;;;;;;;;;;5010687;28;20225;-85
2023/01/28 14:35:42;;;;;;;3.92;3.05;;;;;;;;;;4993641;28;20484;-85
2023/01/28 14:38:09;;;;;;;4.03;3.22;;;;;;;;;;5011275;28;20164;-86
2023/01/28 14:40:36;;;;;;;5.20;3.25;;;;;;;;;;4987250;28;20038;-86
2023/01/28 14:43:05;;;;;;;5.50;2.97;;;;;;;;;;4989606;28;20530;-85
2023/01/28 14:45:30;;;;;;;5.00;3.20;;;;;;;;;;5010953;28;20030;-86
2023/01/28 14:48:12;;;;;;;4.70;3.33;;;;;;;;;;5013208;28;20526;-86
2023/01/28 14:50:37;;;;;;;4.15;2.72;;;;;;;;;;5011465;28;20096;-85
2023/01/28 14:53:15;;;;;;;3.57;3.03;;;;;;;;;;5010937;28;20072;-85
2023/01/28 14:56:16;;;;;;;4.32;3.28;;;;;;;;;;5010961;28;20095;-85
2023/01/28 14:58:44;;;;;;;4.85;3.15;;;;;;;;;;4922948;29;20444;-86
2023/01/28 15:01:21;;;;;;;4.95;3.50;;;;;;;;;;4994853;28;20042;-86
2023/01/28 15:03:46;;;;;;;5.20;3.75;;;;;;;;;;4993745;28;20134;-85
2023/01/28 15:06:13;;;;;;;7.45;4.30;;;;;;;;;;5012015;28;20127;-86
2023/01/28 15:08:38;;;;;;;13.77;9.95;;;;;;;;;;5012628;28;20562;-86
2023/01/28 15:11:05;;;;;;;7.32;5.38;;;;;;;;;;4995964;28;20042;-85
2023/01/28 15:13:32;;;;;;;8.57;6.55;;;;;;;;;;5011079;28;20042;-85
2023/01/28 15:15:59;;;;;;;29.40;16.55;;;;;;;;;;4998821;28;20034;-86
2023/01/28 15:18:35;;;;;;;19.67;11.90;;;;;;;;;;5014363;28;20052;-85
2023/01/28 15:21:00;;;;;;;7.43;5.22;;;;;;;;;;5012568;28;20034;-86